Time;durP1;ratioP1;P1;durP2;ratioP2;P2;SDS_P1;SDS_P2;PMS_P1;PMS_P2;Temp;Humidity;BMP_temperature;BMP_pressure;BME280_temperature;BME280_humidity;BME280_pressure;Samples;Min_cycle;Max_cycle;Signal;HPM_P1;HPM_P2
2022/10/27 00:00:45;;;;;;;23.80;11.80;;;;;;;12.24;84.19;95572.22;5031282;28;20191;-78
2022/10/27 00:03:13;;;;;;;22.80;12.73;;;;;;;12.18;84.75;95567.06;5030916;28;20262;-78
2022/10/27 00:05:40;;;;;;;25.73;12.23;;;;;;;12.15;84.98;95575.28;5030580;28;20201;-78
2022/10/27 00:08:07;;;;;;;20.43;9.80;;;;;;;12.03;84.63;95567.31;5027932;28;20214;-78
2022/10/27 00:10:34;;;;;;;16.63;8.93;;;;;;;12.08;84.33;95585.72;5030318;28;20206;-78
2022/10/27 00:13:01;;;;;;;16.57;9.20;;;;;;;12.01;85.02;95579.72;5030301;28;20210;-77
2022/10/27 00:15:29;;;;;;;20.23;10.80;;;;;;;11.92;85.56;95575.72;5030873;28;20642;-77
2022/10/27 00:17:56;;;;;;;19.17;10.60;;;;;;;12.02;85.52;95586.53;5030947;28;20191;-77
2022/10/27 00:20:23;;;;;;;16.00;9.27;;;;;;;12.04;85.47;95587.13;5030392;28;20224;-78
2022/10/27 00:22:49;;;;;;;19.63;8.60;;;;;;;11.97;85.61;95575.13;5031274;28;20557;-77
2022/10/27 00:25:16;;;;;;;13.07;7.37;;;;;;;12.02;84.98;95583.94;5030941;28;20190;-78
2022/10/27 00:27:43;;;;;;;15.47;7.03;;;;;;;11.99;84.91;95584.34;5030867;28;20221;-78
2022/10/27 00:30:11;;;;;;;14.47;8.40;;;;;;;11.97;85.51;95586.34;5030730;28;20245;-78
2022/10/27 00:32:39;;;;;;;22.43;9.20;;;;;;;11.96;86.13;95587.34;5030628;28;20222;-78
2022/10/27 00:35:07;;;;;;;21.23;9.53;;;;;;;11.97;86.64;95580.34;5019648;28;20209;-78
2022/10/27 00:37:33;;;;;;;16.83;8.60;;;;;;;12.02;86.31;95588.34;5030789;28;20273;-77
2022/10/27 00:40:00;;;;;;;17.20;9.33;;;;;;;12.09;86.12;95594.34;5030241;28;20198;-78
2022/10/27 00:42:27;;;;;;;16.77;9.20;;;;;;;12.05;86.04;95583.53;5034171;28;20261;-77
2022/10/27 00:44:54;;;;;;;20.20;11.10;;;;;;;12.13;85.69;95590.31;5034357;28;20665;-78
2022/10/27 00:47:25;;;;;;;25.27;13.47;;;;;;;12.11;85.62;95598.34;5033849;28;20230;-76
2022/10/27 00:49:58;;;;;;;24.73;12.77;;;;;;;12.13;85.75;95591.13;5034699;28;20194;-78
2022/10/27 00:52:31;;;;;;;21.53;11.50;;;;;;;12.15;85.49;95593.53;5034521;28;20183;-78
2022/10/27 00:55:01;;;;;;;26.63;11.60;;;;;;;12.07;86.08;95591.13;5034048;28;20696;-78
2022/10/27 00:57:29;;;;;;;21.00;11.67;;;;;;;12.17;86.34;95602.75;5032324;28;20562;-77
2022/10/27 00:59:58;;;;;;;24.07;11.07;;;;;;;12.17;85.52;95594.94;5033821;28;20198;-77
2022/10/27 01:02:25;;;;;;;21.40;11.23;;;;;;;12.18;85.69;95596.50;5034136;28;20191;-78
2022/10/27 01:04:58;;;;;;;24.17;10.87;;;;;;;12.14;86.10;95599.75;5034367;28;20190;-78
2022/10/27 01:07:25;;;;;;;20.43;10.50;;;;;;;12.12;86.51;95604.38;5034098;28;20202;-78
2022/10/27 01:09:52;;;;;;;22.80;10.40;;;;;;;12.18;86.42;95608.75;5034423;28;20207;-77
2022/10/27 01:12:19;;;;;;;17.97;10.50;;;;;;;12.22;86.22;95609.94;5033770;28;20202;-78
2022/10/27 01:14:46;;;;;;;21.70;10.30;;;;;;;12.24;85.84;95607.91;5034181;28;20553;-78
2022/10/27 01:17:37;;;;;;;16.93;9.07;;;;;;;12.23;85.92;95616.75;5034027;28;20637;-77
2022/10/27 01:20:51;;;;;;;16.83;8.73;;;;;;;12.13;85.94;95621.56;5033626;28;20186;-78
2022/10/27 01:23:29;;;;;;;16.70;8.10;;;;;;;11.99;86.22;95614.78;5025794;28;20199;-78
2022/10/27 01:26:35;;;;;;;16.93;8.90;;;;;;;11.93;86.72;95619.81;5030438;28;20288;-78
2022/10/27 01:29:37;;;;;;;16.03;8.30;;;;;;;11.88;87.29;95624.03;4968881;28;20231;-77
2022/10/27 01:32:16;;;;;;;20.77;9.37;;;;;;;11.86;87.29;95620.84;5032540;28;20549;-79
2022/10/27 01:34:47;;;;;;;16.93;9.40;;;;;;;12.00;87.34;95627.63;5033430;28;20199;-79
2022/10/27 01:37:21;;;;;;;19.07;9.97;;;;;;;12.04;87.09;95628.81;5033195;28;20222;-76
2022/10/27 01:39:53;;;;;;;20.33;9.20;;;;;;;12.15;86.23;95625.59;5028516;28;20199;-78
2022/10/27 01:42:25;;;;;;;19.57;10.07;;;;;;;12.13;87.02;95617.19;5033634;28;21230;-77
2022/10/27 01:44:56;;;;;;;16.33;9.83;;;;;;;12.15;87.14;95617.00;5014153;28;20307;-77
2022/10/27 01:47:26;;;;;;;20.30;9.57;;;;;;;12.22;86.82;95610.75;5016403;28;20211;-78
2022/10/27 01:49:53;;;;;;;15.33;9.57;;;;;;;12.16;87.14;95613.34;5016114;28;20199;-77
2022/10/27 01:52:45;;;;;;;16.37;9.50;;;;;;;12.09;87.27;95596.94;5013391;28;20219;-77
2022/10/27 01:55:19;;;;;;;14.97;8.90;;;;;;;12.17;86.98;95610.56;4992991;28;20258;-78
2022/10/27 01:58:24;;;;;;;16.80;9.60;;;;;;;12.13;87.31;95605.94;5013793;28;20658;-77
2022/10/27 02:01:00;;;;;;;21.33;9.90;;;;;;;12.16;86.82;95606.34;5004007;28;20257;-77
2022/10/27 02:03:34;;;;;;;16.17;9.20;;;;;;;12.15;86.92;95603.97;5003289;28;20195;-78
2022/10/27 02:06:08;;;;;;;19.10;9.43;;;;;;;12.00;87.31;95601.56;5014112;28;20211;-79
2022/10/27 02:08:40;;;;;;;16.70;10.57;;;;;;;12.03;88.07;95603.78;5013741;28;20285;-78
2022/10/27 02:11:10;;;;;;;22.53;13.27;;;;;;;12.02;88.41;95599.56;5013873;28;20227;-79
2022/10/27 02:13:41;;;;;;;21.30;12.00;;;;;;;11.93;88.17;95588.56;5013630;28;20566;-78
2022/10/27 02:16:11;;;;;;;24.10;12.23;;;;;;;12.02;88.32;95601.34;5013429;28;20191;-78
2022/10/27 02:18:46;;;;;;;15.83;10.47;;;;;;;11.93;88.72;95604.19;5013674;28;20202;-78
2022/10/27 02:21:16;;;;;;;15.87;8.80;;;;;;;11.91;88.64;95602.78;5013353;28;20265;-77
2022/10/27 02:23:43;;;;;;;17.10;8.90;;;;;;;11.80;88.44;95590.38;5013352;28;20200;-78
2022/10/27 02:26:17;;;;;;;16.03;10.43;;;;;;;11.87;88.43;95622.41;5013053;28;20194;-78
2022/10/27 02:28:49;;;;;;;15.23;9.83;;;;;;;11.81;88.88;95615.41;5012908;28;20199;-78
2022/10/27 02:31:19;;;;;;;19.33;10.50;;;;;;;11.86;88.77;95605.22;5012617;28;20203;-78
2022/10/27 02:33:48;;;;;;;17.27;10.40;;;;;;;11.82;89.14;95611.81;5012866;28;20203;-78
2022/10/27 02:36:15;;;;;;;22.83;10.83;;;;;;;11.84;89.53;95613.19;5012747;28;20207;-77
2022/10/27 02:38:41;;;;;;;20.80;11.10;;;;;;;11.86;88.94;95616.41;5012991;28;20204;-78
2022/10/27 02:41:08;;;;;;;18.63;12.17;;;;;;;11.85;88.75;95617.41;5013019;28;20195;-78
2022/10/27 02:43:35;;;;;;;16.23;10.63;;;;;;;11.90;88.84;95625.44;5022280;28;20241;-77
2022/10/27 02:46:04;;;;;;;22.97;12.50;;;;;;;11.88;89.18;95637.06;5030953;28;20195;-78
2022/10/27 02:48:30;;;;;;;20.40;11.67;;;;;;;11.92;89.09;95627.81;5034865;28;20237;-77
2022/10/27 02:50:59;;;;;;;16.63;9.27;;;;;;;11.84;89.17;95631.44;5035356;28;20630;-78
2022/10/27 02:53:26;;;;;;;18.63;9.37;;;;;;;11.77;89.09;95630.66;5033559;28;20670;-78
2022/10/27 02:55:53;;;;;;;22.60;11.90;;;;;;;11.79;89.87;95633.03;5037256;28;20246;-77
2022/10/27 02:58:20;;;;;;;22.33;12.00;;;;;;;11.79;90.01;95635.66;5041150;28;20197;-79
2022/10/27 03:00:46;;;;;;;25.23;12.93;;;;;;;11.83;89.69;95627.22;5036761;28;20198;-77
2022/10/27 03:03:13;;;;;;;26.33;13.27;;;;;;;11.80;89.85;95638.03;5034840;28;20312;-78
2022/10/27 03:05:40;;;;;;;22.93;13.40;;;;;;;11.82;89.85;95636.06;5037352;28;20203;-79
2022/10/27 03:08:08;;;;;;;22.50;12.50;;;;;;;11.85;89.83;95647.88;5032882;28;20602;-78
2022/10/27 03:10:35;;;;;;;25.13;11.73;;;;;;;11.81;89.22;95649.25;5031944;28;20194;-78
2022/10/27 03:13:02;;;;;;;17.80;9.87;;;;;;;11.77;88.92;95650.69;5031972;28;20203;-78
2022/10/27 03:15:29;;;;;;;14.97;8.27;;;;;;;11.72;88.57;95650.47;5031880;28;20198;-78
2022/10/27 03:17:55;;;;;;;15.57;7.90;;;;;;;11.76;87.97;95654.28;5016439;28;20682;-77
2022/10/27 03:20:22;;;;;;;10.40;7.00;;;;;;;11.72;87.91;95660.88;5012516;28;20199;-78
2022/10/27 03:22:49;;;;;;;16.17;7.40;;;;;;;11.72;87.86;95658.28;5029690;28;20253;-78
2022/10/27 03:25:17;;;;;;;13.37;7.80;;;;;;;11.70;87.78;95645.47;5031861;28;20190;-79
2022/10/27 03:27:44;;;;;;;15.73;7.63;;;;;;;11.67;87.58;95655.44;5031655;28;20195;-79
2022/10/27 03:30:14;;;;;;;13.43;7.43;;;;;;;11.75;87.75;95663.88;5031610;28;20269;-78
2022/10/27 03:32:44;;;;;;;14.50;7.77;;;;;;;11.74;87.51;95657.09;5031325;28;20661;-79
2022/10/27 03:35:11;;;;;;;17.13;7.73;;;;;;;11.70;87.50;95653.28;5031950;28;20183;-79
2022/10/27 03:37:38;;;;;;;14.40;7.67;;;;;;;11.71;87.50;95643.66;5031695;28;20195;-78
2022/10/27 03:40:05;;;;;;;17.17;7.47;;;;;;;11.70;87.76;95655.88;5031668;28;20276;-78
2022/10/27 03:42:34;;;;;;;12.50;7.30;;;;;;;11.69;88.16;95658.63;5028098;28;20203;-78
2022/10/27 03:45:00;;;;;;;13.43;7.50;;;;;;;11.71;87.99;95659.28;5031770;28;20191;-78
2022/10/27 03:47:27;;;;;;;18.27;8.13;;;;;;;11.69;87.81;95653.44;5020994;28;20290;-78
2022/10/27 03:49:54;;;;;;;16.27;8.67;;;;;;;11.69;88.00;95653.44;5031279;28;20272;-79
2022/10/27 03:52:21;;;;;;;21.93;8.87;;;;;;;11.58;88.40;95654.03;5031058;28;20623;-79
2022/10/27 03:54:48;;;;;;;19.40;8.87;;;;;;;11.55;88.94;95655.22;5028602;28;20186;-78
2022/10/27 03:57:15;;;;;;;16.13;8.40;;;;;;;11.53;89.71;95643.41;5031332;28;20229;-79
2022/10/27 03:59:43;;;;;;;20.23;9.50;;;;;;;11.55;90.27;95649.22;5031551;28;20214;-79
2022/10/27 04:02:10;;;;;;;23.40;9.40;;;;;;;11.56;90.44;95659.44;5031562;28;20249;-79
2022/10/27 04:04:37;;;;;;;16.57;8.97;;;;;;;11.54;90.94;95652.84;5031098;28;20209;-77
2022/10/27 04:07:03;;;;;;;21.03;9.77;;;;;;;11.65;90.10;95657.44;5031158;28;20218;-77
2022/10/27 04:09:30;;;;;;;20.60;9.40;;;;;;;11.70;89.79;95652.47;5030791;28;20394;-77
2022/10/27 04:11:57;;;;;;;20.03;9.70;;;;;;;11.72;89.98;95651.25;5031095;28;20935;-78
2022/10/27 04:14:24;;;;;;;22.07;11.47;;;;;;;11.79;89.71;95656.47;5030963;28;20635;-77
2022/10/27 04:16:52;;;;;;;19.67;10.63;;;;;;;11.76;89.54;95662.91;5029627;28;20198;-78
2022/10/27 04:19:19;;;;;;;20.53;10.47;;;;;;;11.76;89.58;95662.09;5030897;28;20199;-77
2022/10/27 04:21:46;;;;;;;26.27;10.77;;;;;;;11.73;89.80;95658.09;5030913;28;20191;-79
2022/10/27 04:24:13;;;;;;;22.60;11.23;;;;;;;11.63;89.94;95649.81;5030515;28;20685;-78
2022/10/27 04:26:41;;;;;;;31.10;11.30;;;;;;;11.67;89.96;95671.06;5030725;28;20201;-79
2022/10/27 04:29:07;;;;;;;20.57;11.50;;;;;;;11.60;90.32;95668.44;5025127;28;20594;-77
2022/10/27 04:31:34;;;;;;;29.20;11.80;;;;;;;11.64;90.24;95671.47;5030542;28;20199;-79
2022/10/27 04:34:02;;;;;;;20.33;11.20;;;;;;;11.61;90.15;95671.84;5030822;28;20600;-79
2022/10/27 04:36:29;;;;;;;28.47;14.70;;;;;;;11.55;90.78;95681.25;5030869;28;20191;-79
2022/10/27 04:38:56;;;;;;;25.23;13.03;;;;;;;11.57;90.54;95673.28;5030820;28;20202;-78
2022/10/27 04:41:23;;;;;;;20.40;11.97;;;;;;;11.52;90.78;95684.25;5030493;28;20187;-79
2022/10/27 04:43:50;;;;;;;32.67;12.73;;;;;;;11.47;91.36;95684.06;5030301;28;20234;-78
2022/10/27 04:46:17;;;;;;;23.30;12.77;;;;;;;11.45;90.50;95674.84;5030460;28;20214;-78
2022/10/27 04:48:44;;;;;;;20.70;11.73;;;;;;;11.31;90.78;95676.63;5030199;28;20222;-78
2022/10/27 04:51:12;;;;;;;31.43;14.07;;;;;;;11.23;91.74;95677.59;5030378;28;20194;-77
2022/10/27 04:53:39;;;;;;;32.20;14.20;;;;;;;11.20;92.12;95683.19;5030532;28;20202;-78
2022/10/27 04:56:06;;;;;;;29.80;15.17;;;;;;;11.10;92.53;95679.38;5030541;28;20221;-77
2022/10/27 04:58:33;;;;;;;40.57;16.37;;;;;;;11.07;93.10;95685.75;5030439;28;20199;-79
2022/10/27 05:01:05;;;;;;;39.30;16.53;;;;;;;11.10;92.64;95682.78;5030662;28;20191;-77
2022/10/27 05:03:32;;;;;;;38.80;17.77;;;;;;;11.13;92.75;95678.97;5030598;28;20245;-77
2022/10/27 05:05:59;;;;;;;67.00;25.83;;;;;;;11.07;93.39;95684.97;5030470;28;20252;-78
2022/10/27 05:08:27;;;;;;;90.57;33.90;;;;;;;11.00;93.55;95687.53;5030381;28;20257;-77
2022/10/27 05:10:54;;;;;;;137.37;51.07;;;;;;;11.08;92.88;95702.19;5030445;28;20217;-78
2022/10/27 05:13:21;;;;;;;199.37;83.70;;;;;;;11.06;93.75;95707.56;5027696;28;20252;-79
2022/10/27 05:15:47;;;;;;;192.87;93.67;;;;;;;11.05;93.35;95705.97;5030327;28;20561;-76
2022/10/27 05:18:14;;;;;;;178.10;86.50;;;;;;;11.03;93.38;95713.16;5030773;28;20397;-79
2022/10/27 05:20:41;;;;;;;78.83;38.27;;;;;;;11.03;92.83;95712.34;5030153;28;20684;-78
2022/10/27 05:23:08;;;;;;;48.13;25.37;;;;;;;10.99;93.30;95716.34;5022704;28;20218;-78
2022/10/27 05:25:36;;;;;;;43.07;22.50;;;;;;;10.97;93.08;95726.13;5030099;28;20206;-80
2022/10/27 05:28:04;;;;;;;30.10;15.30;;;;;;;10.83;93.22;95722.66;5033347;28;20191;-78
2022/10/27 05:30:31;;;;;;;25.33;13.03;;;;;;;10.94;93.26;95745.53;5033680;28;20227;-78
2022/10/27 05:32:58;;;;;;;30.20;13.23;;;;;;;10.93;92.38;95740.53;5033763;28;20195;-77
2022/10/27 05:35:24;;;;;;;27.47;12.30;;;;;;;10.93;92.43;95745.72;5033062;28;20191;-78
2022/10/27 05:37:51;;;;;;;21.67;11.10;;;;;;;10.90;92.89;95746.91;5032539;28;20202;-77
2022/10/27 05:40:18;;;;;;;18.97;10.70;;;;;;;10.91;92.29;95752.94;5032582;28;20483;-78
2022/10/27 05:42:54;;;;;;;26.00;11.07;;;;;;;10.88;92.01;95759.28;5032242;28;20614;-78
2022/10/27 05:45:23;;;;;;;22.70;10.67;;;;;;;10.86;91.26;95763.91;5033239;28;20252;-78
2022/10/27 05:47:56;;;;;;;25.23;11.03;;;;;;;10.81;91.19;95764.47;5032720;28;20194;-79
2022/10/27 05:50:22;;;;;;;23.10;11.90;;;;;;;10.92;90.90;95768.31;5033345;28;20229;-78
2022/10/27 05:52:49;;;;;;;22.10;11.13;;;;;;;10.86;90.66;95778.69;5033641;28;20199;-77
2022/10/27 05:55:16;;;;;;;38.70;14.57;;;;;;;10.79;91.14;95781.28;5034108;28;20195;-78
2022/10/27 05:57:43;;;;;;;41.20;15.37;;;;;;;10.73;91.60;95775.03;5033403;28;20654;-78
2022/10/27 06:00:12;;;;;;;35.70;15.23;;;;;;;10.83;91.99;95785.88;5033408;28;20621;-78
2022/10/27 06:02:44;;;;;;;31.03;15.47;;;;;;;10.80;91.62;95788.06;5033019;28;20215;-78
2022/10/27 06:05:11;;;;;;;32.17;15.80;;;;;;;10.64;91.06;95776.19;5027957;28;20289;-78
2022/10/27 06:07:38;;;;;;;32.20;15.93;;;;;;;10.70;92.23;95788.41;5033119;28;20198;-78
2022/10/27 06:10:05;;;;;;;32.73;18.03;;;;;;;10.72;91.76;95791.63;5033084;28;20223;-78
2022/10/27 06:12:34;;;;;;;32.87;16.37;;;;;;;10.68;90.55;95773.97;5029874;28;20659;-79
2022/10/27 06:15:01;;;;;;;21.17;11.90;;;;;;;10.71;90.53;95786.59;5033451;28;20195;-78
2022/10/27 06:17:29;;;;;;;24.20;13.23;;;;;;;10.69;90.79;95791.19;5027970;28;20191;-78
2022/10/27 06:19:56;;;;;;;22.70;12.57;;;;;;;10.72;90.93;95799.44;5032851;28;20677;-79
2022/10/27 06:22:23;;;;;;;22.87;12.43;;;;;;;10.72;90.39;95794.22;5032855;28;20198;-78
2022/10/27 06:24:50;;;;;;;29.57;13.33;;;;;;;10.86;90.94;95802.91;5032637;28;20187;-78
2022/10/27 06:27:17;;;;;;;33.57;17.13;;;;;;;10.83;90.28;95803.28;5032737;28;20569;-78
2022/10/27 06:29:43;;;;;;;30.50;17.43;;;;;;;10.88;91.28;95797.53;5033042;28;20211;-78
2022/10/27 06:32:10;;;;;;;30.63;16.40;;;;;;;10.90;90.78;95801.53;5032315;28;20191;-77
2022/10/27 06:34:41;;;;;;;27.77;15.87;;;;;;;10.86;91.10;95807.28;5032694;28;20198;-79
2022/10/27 06:37:08;;;;;;;24.07;12.93;;;;;;;10.99;91.29;95803.00;5030118;28;20195;-79
2022/10/27 06:39:35;;;;;;;28.57;12.27;;;;;;;11.10;90.94;95807.66;5031948;28;20191;-79
2022/10/27 06:42:02;;;;;;;20.40;11.37;;;;;;;11.17;90.92;95815.47;5032193;28;20675;-77
2022/10/27 06:44:28;;;;;;;31.80;11.83;;;;;;;11.27;91.04;95816.75;5029627;28;20218;-77
2022/10/27 06:46:55;;;;;;;31.53;10.23;;;;;;;11.33;90.70;95804.75;5032172;28;20642;-79
2022/10/27 06:49:22;;;;;;;30.40;9.87;;;;;;;11.49;89.91;95814.00;5032163;28;20689;-77
2022/10/27 06:51:50;;;;;;;31.33;10.80;;;;;;;11.54;90.05;95814.25;5029621;28;20688;-78
2022/10/27 06:54:18;;;;;;;19.83;8.97;;;;;;;11.63;89.58;95819.06;5032584;28;20195;-78
2022/10/27 06:56:45;;;;;;;16.00;7.37;;;;;;;11.66;88.60;95808.28;5032197;28;20195;-77
2022/10/27 06:59:11;;;;;;;17.27;6.93;;;;;;;11.77;87.53;95809.56;5031375;28;20191;-78
2022/10/27 07:01:38;;;;;;;20.37;7.80;;;;;;;11.88;87.51;95814.19;5032005;28;20199;-79
2022/10/27 07:04:05;;;;;;;15.30;8.33;;;;;;;12.02;87.49;95812.41;5032268;28;20203;-78
2022/10/27 07:06:32;;;;;;;24.47;8.70;;;;;;;12.14;86.80;95819.44;5031695;28;20683;-78
2022/10/27 07:09:00;;;;;;;29.77;17.43;;;;;;;12.25;86.50;95829.28;5031203;28;20202;-78
2022/10/27 07:11:27;;;;;;;32.33;19.40;;;;;;;12.40;85.28;95827.31;5031834;28;20530;-78
2022/10/27 07:13:54;;;;;;;33.23;19.73;;;;;;;12.48;84.78;95834.09;5032432;28;20202;-78
2022/10/27 07:16:21;;;;;;;29.17;10.83;;;;;;;12.57;84.45;95826.88;5032112;28;20641;-78
2022/10/27 07:18:48;;;;;;;19.33;8.60;;;;;;;12.59;83.72;95830.09;5031754;28;20680;-78
2022/10/27 07:21:15;;;;;;;16.83;7.57;;;;;;;12.60;83.30;95842.94;5032240;28;20199;-78
2022/10/27 07:23:42;;;;;;;15.17;6.30;;;;;;;12.67;81.84;95837.75;5032387;28;20199;-78
2022/10/27 07:26:10;;;;;;;14.80;6.87;;;;;;;12.76;81.53;95839.91;5032403;28;20202;-78
2022/10/27 07:28:37;;;;;;;16.30;7.27;;;;;;;12.82;81.05;95843.53;5031795;28;20253;-78
2022/10/27 07:31:04;;;;;;;12.77;6.67;;;;;;;12.90;80.28;95845.94;5031741;28;20268;-78
2022/10/27 07:33:31;;;;;;;22.80;7.20;;;;;;;12.95;79.93;95846.13;5031834;28;20203;-79
2022/10/27 07:35:58;;;;;;;15.27;6.93;;;;;;;12.98;80.30;95848.34;5031657;28;20195;-78
2022/10/27 07:38:24;;;;;;;17.80;7.70;;;;;;;13.04;79.67;95842.31;5032440;28;20210;-78
2022/10/27 07:40:51;;;;;;;12.70;6.93;;;;;;;13.10;79.02;95838.13;5032049;28;20191;-78
2022/10/27 07:43:19;;;;;;;14.87;7.10;;;;;;;13.17;78.65;95851.94;5026865;28;20223;-78
2022/10/27 07:45:46;;;;;;;15.37;6.93;;;;;;;13.15;78.54;95849.53;5031580;28;20669;-79
2022/10/27 07:48:15;;;;;;;17.87;6.83;;;;;;;13.07;78.86;95839.28;5031847;28;20250;-78
2022/10/27 07:50:43;;;;;;;16.33;7.80;;;;;;;13.23;77.98;95853.72;5030892;28;20225;-78
2022/10/27 07:53:10;;;;;;;12.80;6.87;;;;;;;13.24;77.80;95855.34;5027306;28;20233;-78
2022/10/27 07:55:38;;;;;;;16.70;6.97;;;;;;;13.27;77.83;95857.56;5031596;28;20195;-78
2022/10/27 07:58:07;;;;;;;13.47;6.67;;;;;;;13.28;77.22;95857.34;5031534;28;20194;-79
2022/10/27 08:00:36;;;;;;;15.27;6.50;;;;;;;13.35;77.01;95844.28;5032250;28;20642;-78
2022/10/27 08:03:04;;;;;;;13.33;6.20;;;;;;;13.38;76.83;95857.72;5031621;28;20195;-78
2022/10/27 08:05:34;;;;;;;11.40;6.37;;;;;;;13.40;77.47;95847.88;5031927;28;20256;-78
2022/10/27 08:08:02;;;;;;;14.73;7.03;;;;;;;13.43;76.79;95841.44;5031791;28;20257;-79
2022/10/27 08:10:30;;;;;;;15.13;7.67;;;;;;;13.52;77.17;95837.59;5026394;28;20245;-78
2022/10/27 08:12:57;;;;;;;14.67;7.50;;;;;;;13.62;77.01;95841.34;5030904;28;20257;-77
2022/10/27 08:15:24;;;;;;;17.80;7.90;;;;;;;13.62;76.99;95836.13;5031535;28;20256;-78
2022/10/27 08:17:53;;;;;;;15.80;8.30;;;;;;;13.84;75.89;95848.91;5031647;28;20194;-78
2022/10/27 08:20:21;;;;;;;17.57;9.87;;;;;;;13.91;75.46;95849.69;5030991;28;20198;-78
2022/10/27 08:22:54;;;;;;;20.23;11.23;;;;;;;13.98;74.51;95838.19;5030804;28;20272;-78
2022/10/27 08:25:21;;;;;;;18.33;10.70;;;;;;;14.03;74.48;95851.41;5031239;28;20184;-77
2022/10/27 08:27:48;;;;;;;23.67;10.67;;;;;;;14.08;75.01;95846.34;5028434;28;20199;-77
2022/10/27 08:30:15;;;;;;;22.83;10.90;;;;;;;14.12;74.51;95852.78;5031130;28;20297;-78
2022/10/27 08:32:41;;;;;;;20.67;9.20;;;;;;;14.18;74.44;95843.28;5031402;28;20195;-78
2022/10/27 08:35:10;;;;;;;16.33;6.50;;;;;;;14.42;71.83;95854.84;5031552;28;20628;-78
2022/10/27 08:37:37;;;;;;;15.37;5.73;;;;;;;14.56;69.95;95851.13;5031092;28;20203;-78
2022/10/27 08:40:05;;;;;;;13.67;5.97;;;;;;;14.62;70.71;95851.06;5030783;28;20564;-78
2022/10/27 08:42:40;;;;;;;14.90;6.47;;;;;;;14.67;70.88;95848.63;5030440;28;20206;-77
2022/10/27 08:45:12;;;;;;;12.93;6.80;;;;;;;14.86;69.49;95846.06;5030821;28;20696;-77
2022/10/27 08:47:39;;;;;;;18.33;6.63;;;;;;;15.04;70.03;95844.25;5030704;28;20191;-77
2022/10/27 08:50:14;;;;;;;16.67;7.03;;;;;;;15.44;68.84;95846.50;5030913;28;20214;-78
2022/10/27 08:52:45;;;;;;;10.93;6.10;;;;;;;15.90;67.48;95836.28;5031127;28;20194;-78
2022/10/27 08:55:22;;;;;;;12.80;6.40;;;;;;;16.63;64.22;95849.19;5028376;28;20561;-78
2022/10/27 08:57:55;;;;;;;9.57;5.67;;;;;;;17.30;61.18;95843.41;5030738;28;20218;-77
2022/10/27 09:00:22;;;;;;;13.73;5.53;;;;;;;18.02;59.42;95849.91;5030950;28;20613;-77
2022/10/27 09:03:20;;;;;;;12.40;5.20;;;;;;;18.72;55.94;95854.06;5033459;28;20198;-77
2022/10/27 09:06:02;;;;;;;11.88;5.43;;;;;;;19.51;53.75;95851.03;5032157;28;20206;-77
2022/10/27 09:08:37;;;;;;;13.43;5.00;;;;;;;20.17;51.38;95855.25;5034555;28;20210;-77
2022/10/27 09:11:19;;;;;;;8.25;5.10;;;;;;;20.81;49.57;95853.53;5034540;28;20553;-77
2022/10/27 09:14:03;;;;;;;12.35;5.63;;;;;;;21.43;47.76;95848.47;5034635;28;20202;-78
2022/10/27 09:16:37;;;;;;;14.80;6.22;;;;;;;22.08;45.86;95859.63;5034311;28;20190;-77
2022/10/27 09:19:11;;;;;;;11.18;5.80;;;;;;;22.60;44.12;95862.91;5034393;28;20848;-78
2022/10/27 09:21:42;;;;;;;13.90;5.60;;;;;;;23.00;42.53;95864.84;5034581;28;20201;-78
2022/10/27 09:24:13;;;;;;;9.15;4.90;;;;;;;23.51;41.21;95865.59;5031596;28;20199;-78
2022/10/27 09:26:43;;;;;;;9.80;5.00;;;;;;;23.96;39.81;95862.81;5034530;28;20219;-77
2022/10/27 09:29:19;;;;;;;15.50;5.40;;;;;;;24.06;38.67;95852.16;5033929;28;20844;-77
2022/10/27 09:31:51;;;;;;;14.13;4.97;;;;;;;24.23;38.47;95851.81;5033895;28;20297;-77
2022/10/27 09:34:23;;;;;;;13.55;5.30;;;;;;;24.33;38.01;95848.31;5034056;28;20183;-77
2022/10/27 09:36:52;;;;;;;18.90;4.90;;;;;;;24.74;37.02;95852.28;5033898;28;20203;-78
2022/10/27 09:39:20;;;;;;;11.68;5.07;;;;;;;25.12;36.46;95846.16;5033861;28;20669;-79
2022/10/27 09:41:47;;;;;;;7.60;4.53;;;;;;;25.80;35.32;95854.81;5033659;28;20202;-79
2022/10/27 09:44:19;;;;;;;8.50;4.63;;;;;;;26.50;33.76;95858.47;5032923;28;20230;-78
2022/10/27 09:46:51;;;;;;;6.07;4.50;;;;;;;27.21;32.93;95856.63;5033551;28;20279;-78
2022/10/27 09:49:19;;;;;;;13.38;4.63;;;;;;;27.79;31.68;95854.25;5034167;28;20218;-78
2022/10/27 09:51:52;;;;;;;7.97;4.10;;;;;;;28.07;30.59;95854.00;5033691;28;20246;-78
2022/10/27 09:54:31;;;;;;;10.35;4.93;;;;;;;28.28;30.51;95851.69;5033229;28;20183;-77
2022/10/27 09:57:10;;;;;;;10.35;4.85;;;;;;;28.71;29.41;95854.78;5033881;28;20656;-78
2022/10/27 09:59:39;;;;;;;6.75;4.07;;;;;;;29.07;29.53;95839.44;5033894;28;20211;-78
2022/10/27 10:02:22;;;;;;;7.95;3.85;;;;;;;29.56;28.41;95848.41;5033667;28;20191;-78
2022/10/27 10:04:49;;;;;;;10.38;3.58;;;;;;;29.58;27.52;95855.03;5033630;28;20187;-77
2022/10/27 10:07:31;;;;;;;9.82;3.65;;;;;;;29.83;27.28;95845.56;5033179;28;20662;-77
2022/10/27 10:10:07;;;;;;;11.85;3.63;;;;;;;30.08;26.87;95852.09;5031731;28;20741;-78
2022/10/27 10:12:34;;;;;;;7.25;3.25;;;;;;;30.29;25.97;95855.78;5027029;28;20195;-77
2022/10/27 10:15:19;;;;;;;9.25;2.97;;;;;;;30.25;25.46;95858.28;5031021;28;20195;-78
2022/10/27 10:17:55;;;;;;;6.13;2.92;;;;;;;30.37;25.58;95852.31;5032855;28;20581;-78
2022/10/27 10:20:32;;;;;;;9.20;3.65;;;;;;;30.22;25.65;95850.06;5033186;28;20186;-78
2022/10/27 10:22:59;;;;;;;6.95;3.38;;;;;;;30.35;25.81;95847.25;5031681;28;20246;-78
2022/10/27 10:25:30;;;;;;;6.20;3.45;;;;;;;30.49;25.53;95847.16;5032988;28;20191;-78
2022/10/27 10:27:59;;;;;;;10.68;3.95;;;;;;;30.44;25.61;95847.31;5033191;28;20195;-77
2022/10/27 10:30:27;;;;;;;7.13;4.10;;;;;;;30.69;25.44;95848.41;5033089;28;20218;-79
2022/10/27 10:32:56;;;;;;;6.80;3.45;;;;;;;30.91;25.51;95851.72;5033111;28;20607;-79
2022/10/27 10:35:47;;;;;;;6.32;3.05;;;;;;;30.94;25.52;95853.00;5033013;28;20294;-78
2022/10/27 10:38:27;;;;;;;4.45;3.25;;;;;;;31.13;24.10;95850.78;5030868;28;20190;-78
2022/10/27 10:41:02;;;;;;;4.82;3.22;;;;;;;31.26;23.95;95852.50;5032790;28;20190;-78
2022/10/27 10:43:29;;;;;;;6.60;3.25;;;;;;;31.41;22.85;95848.50;5029659;28;20222;-78
2022/10/27 10:45:57;;;;;;;4.57;3.05;;;;;;;31.36;23.59;95851.38;5032585;28;20191;-78
2022/10/27 10:48:31;;;;;;;5.38;2.90;;;;;;;31.23;23.51;95842.38;5033031;28;20186;-78
2022/10/27 10:50:59;;;;;;;11.55;3.28;;;;;;;31.59;23.20;95838.53;5032656;28;20660;-78
2022/10/27 10:53:30;;;;;;;4.70;2.50;;;;;;;32.07;22.25;95841.66;5032747;28;20214;-80
2022/10/27 10:56:02;;;;;;;2.88;2.08;;;;;;;31.82;21.23;95840.66;5031912;28;20202;-78
2022/10/27 10:58:32;;;;;;;3.08;2.20;;;;;;;31.95;21.40;95846.91;5029868;28;20198;-78
2022/10/27 11:01:01;;;;;;;4.80;2.20;;;;;;;32.19;21.52;95822.09;5032387;28;20278;-79
2022/10/27 11:03:31;;;;;;;7.45;2.20;;;;;;;32.61;21.21;95833.75;5031737;28;20681;-80
2022/10/27 11:06:02;;;;;;;7.72;2.50;;;;;;;32.56;21.18;95834.72;5031815;28;20186;-78
2022/10/27 11:08:41;;;;;;;4.35;2.55;;;;;;;32.74;20.45;95828.06;5032133;28;20186;-77
2022/10/27 11:11:16;;;;;;;4.47;2.28;;;;;;;32.88;20.61;95833.97;5032022;28;20211;-78
2022/10/27 11:13:47;;;;;;;4.22;2.17;;;;;;;32.91;20.39;95832.50;5031411;28;20206;-77
2022/10/27 11:16:15;;;;;;;3.05;2.10;;;;;;;32.94;19.54;95829.16;5030575;28;20646;-77
2022/10/27 11:18:46;;;;;;;4.32;2.28;;;;;;;32.85;19.66;95829.25;5032053;28;20199;-78
2022/10/27 11:21:22;;;;;;;4.05;2.10;;;;;;;32.86;20.16;95824.66;5032987;28;20186;-78
2022/10/27 11:23:50;;;;;;;5.18;2.17;;;;;;;33.01;19.36;95821.34;5032533;28;20206;-77
2022/10/27 11:26:23;;;;;;;3.35;1.92;;;;;;;33.08;18.94;95821.59;5032015;28;20551;-77
2022/10/27 11:28:59;;;;;;;4.50;1.88;;;;;;;32.51;19.21;95816.81;5026796;28;20187;-77
2022/10/27 11:31:38;;;;;;;2.03;1.80;;;;;;;32.68;19.60;95815.91;5031766;28;20218;-78
2022/10/27 11:34:16;;;;;;;3.85;1.75;;;;;;;32.88;18.99;95814.31;5031596;28;20206;-79
2022/10/27 11:36:49;;;;;;;3.70;2.03;;;;;;;32.78;19.07;95810.13;5031802;28;20305;-78